sensor_id;sensor_type;location;lat;lon;timestamp;pressure;altitude;pressure_sealevel;temperature;humidity
30110;BME280;14965;50.660;13.226;2023-02-02T00:00:59;94520.09;;;-0.51;100.00
30110;BME280;14965;50.660;13.226;2023-02-02T00:03:26;94530.19;;;-0.48;100.00
30110;BME280;14965;50.660;13.226;2023-02-02T00:05:53;94526.28;;;-0.51;100.00
30110;BME280;14965;50.660;13.226;2023-02-02T00:08:21;94539.50;;;-0.49;100.00
30110;BME280;14965;50.660;13.226;2023-02-02T00:10:47;94512.75;;;-0.47;100.00
30110;BME280;14965;50.660;13.226;2023-02-02T00:13:13;94529.81;;;-0.46;100.00
30110;BME280;14965;50.660;13.226;2023-02-02T00:15:39;94517.03;;;-0.46;100.00
30110;BME280;14965;50.660;13.226;2023-02-02T00:18:06;94528.66;;;-0.45;100.00
30110;BME280;14965;50.660;13.226;2023-02-02T00:20:33;94532.91;;;-0.48;100.00
30110;BME280;14965;50.660;13.226;2023-02-02T00:23:00;94533.69;;;-0.47;100.00
30110;BME280;14965;50.660;13.226;2023-02-02T00:25:26;94528.22;;;-0.51;100.00
30110;BME280;14965;50.660;13.226;2023-02-02T00:27:52;94528.63;;;-0.49;100.00
30110;BME280;14965;50.660;13.226;2023-02-02T00:30:18;94527.50;;;-0.44;100.00
30110;BME280;14965;50.660;13.226;2023-02-02T00:32:44;94515.09;;;-0.45;100.00
30110;BME280;14965;50.660;13.226;2023-02-02T00:35:10;94525.19;;;-0.46;100.00
30110;BME280;14965;50.660;13.226;2023-02-02T00:37:38;94531.00;;;-0.44;100.00
30110;BME280;14965;50.660;13.226;2023-02-02T00:40:05;94529.44;;;-0.45;100.00
30110;BME280;14965;50.660;13.226;2023-02-02T00:42:32;94518.19;;;-0.47;100.00
30110;BME280;14965;50.660;13.226;2023-02-02T00:44:58;94540.69;;;-0.43;100.00
30110;BME280;14965;50.660;13.226;2023-02-02T00:47:27;94535.28;;;-0.39;100.00
30110;BME280;14965;50.660;13.226;2023-02-02T00:49:53;94557.38;;;-0.41;100.00
30110;BME280;14965;50.660;13.226;2023-02-02T00:52:19;94539.13;;;-0.44;100.00
30110;BME280;14965;50.660;13.226;2023-02-02T00:54:46;94542.25;;;-0.42;100.00
30110;BME280;14965;50.660;13.226;2023-02-02T00:57:13;94552.69;;;-0.44;100.00
30110;BME280;14965;50.660;13.226;2023-02-02T00:59:39;94532.16;;;-0.45;100.00
30110;BME280;14965;50.660;13.226;2023-02-02T01:02:08;94548.06;;;-0.43;100.00
30110;BME280;14965;50.660;13.226;2023-02-02T01:04:34;94552.31;;;-0.42;100.00
30110;BME280;14965;50.660;13.226;2023-02-02T01:07:03;94556.19;;;-0.43;100.00
30110;BME280;14965;50.660;13.226;2023-02-02T01:09:29;94561.66;;;-0.40;100.00
30110;BME280;14965;50.660;13.226;2023-02-02T01:11:57;94562.03;;;-0.41;100.00
30110;BME280;14965;50.660;13.226;2023-02-02T01:14:23;94561.66;;;-0.40;100.00
30110;BME280;14965;50.660;13.226;2023-02-02T01:16:49;94556.22;;;-0.40;100.00
30110;BME280;14965;50.660;13.226;2023-02-02T01:19:15;94550.03;;;-0.40;100.00
30110;BME280;14965;50.660;13.226;2023-02-02T01:21:45;94556.19;;;-0.43;100.00
30110;BME280;14965;50.660;13.226;2023-02-02T01:24:17;94544.59;;;-0.40;100.00
30110;BME280;14965;50.660;13.226;2023-02-02T01:26:43;94566.66;;;-0.42;100.00
30110;BME280;14965;50.660;13.226;2023-02-02T01:29:10;94560.09;;;-0.41;100.00
30110;BME280;14965;50.660;13.226;2023-02-02T01:31:37;94560.88;;;-0.40;100.00
30110;BME280;14965;50.660;13.226;2023-02-02T01:34:04;94553.88;;;-0.45;100.00
30110;BME280;14965;50.660;13.226;2023-02-02T01:36:30;94557.34;;;-0.44;100.00
30110;BME280;14965;50.660;13.226;2023-02-02T01:38:59;94556.19;;;-0.43;100.00
30110;BME280;14965;50.660;13.226;2023-02-02T01:41:28;94553.09;;;-0.42;100.00
30110;BME280;14965;50.660;13.226;2023-02-02T01:44:00;94563.16;;;-0.42;100.00
30110;BME280;14965;50.660;13.226;2023-02-02T01:46:30;94564.28;;;-0.47;100.00
30110;BME280;14965;50.660;13.226;2023-02-02T01:49:03;94565.50;;;-0.44;100.00
30110;BME280;14965;50.660;13.226;2023-02-02T01:51:41;94556.53;;;-0.48;100.00
30110;BME280;14965;50.660;13.226;2023-02-02T01:54:15;94558.47;;;-0.49;100.00
30110;BME280;14965;50.660;13.226;2023-02-02T01:56:52;94551.03;;;-0.56;100.00
30110;BME280;14965;50.660;13.226;2023-02-02T01:59:25;94554.53;;;-0.55;100.00
30110;BME280;14965;50.660;13.226;2023-02-02T02:02:09;94565.38;;;-0.55;100.00
30110;BME280;14965;50.660;13.226;2023-02-02T02:04:44;94571.59;;;-0.55;100.00
30110;BME280;14965;50.660;13.226;2023-02-02T02:07:21;94572.00;;;-0.53;100.00
30110;BME280;14965;50.660;13.226;2023-02-02T02:09:56;94574.69;;;-0.56;100.00
30110;BME280;14965;50.660;13.226;2023-02-02T02:12:38;94569.66;;;-0.58;100.00
30110;BME280;14965;50.660;13.226;2023-02-02T02:15:09;94574.72;;;-0.53;100.00
30110;BME280;14965;50.660;13.226;2023-02-02T02:17:52;94587.53;;;-0.49;100.00
30110;BME280;14965;50.660;13.226;2023-02-02T02:24:49;94568.53;;;-0.53;100.00
30110;BME280;14965;50.660;13.226;2023-02-02T02:34:52;94587.16;;;-0.48;100.00
30110;BME280;14965;50.660;13.226;2023-02-02T02:37:40;94579.00;;;-0.48;100.00
30110;BME280;14965;50.660;13.226;2023-02-02T02:40:39;94574.75;;;-0.49;100.00
30110;BME280;14965;50.660;13.226;2023-02-02T02:43:15;94583.25;;;-0.51;100.00
30110;BME280;14965;50.660;13.226;2023-02-02T02:45:52;94583.63;;;-0.52;100.00
30110;BME280;14965;50.660;13.226;2023-02-02T02:48:33;94591.78;;;-0.52;100.00
30110;BME280;14965;50.660;13.226;2023-02-02T02:51:40;94587.91;;;-0.51;100.00
30110;BME280;14965;50.660;13.226;2023-02-02T02:54:17;94579.75;;;-0.51;100.00
30110;BME280;14965;50.660;13.226;2023-02-02T02:57:17;94581.31;;;-0.54;100.00
30110;BME280;14965;50.660;13.226;2023-02-02T03:00:16;94576.22;;;-0.55;100.00
30110;BME280;14965;50.660;13.226;2023-02-02T03:03:12;94582.00;;;-0.60;100.00
30110;BME280;14965;50.660;13.226;2023-02-02T03:06:09;94576.97;;;-0.62;100.00
30110;BME280;14965;50.660;13.226;2023-02-02T03:08:47;94595.19;;;-0.59;100.00
30110;BME280;14965;50.660;13.226;2023-02-02T03:11:18;94590.19;;;-0.57;100.00
30110;BME280;14965;50.660;13.226;2023-02-02T03:14:05;94583.97;;;-0.57;100.00
30110;BME280;14965;50.660;13.226;2023-02-02T03:16:36;94582.81;;;-0.56;100.00
30110;BME280;14965;50.660;13.226;2023-02-02T03:19:08;94601.41;;;-0.55;100.00
30110;BME280;14965;50.660;13.226;2023-02-02T03:21:46;94587.47;;;-0.57;100.00
30110;BME280;14965;50.660;13.226;2023-02-02T03:24:30;94571.59;;;-0.58;100.00
30110;BME280;14965;50.660;13.226;2023-02-02T03:27:31;94596.38;;;-0.56;100.00
30110;BME280;14965;50.660;13.226;2023-02-02T03:30:39;94598.69;;;-0.58;100.00
30110;BME280;14965;50.660;13.226;2023-02-02T03:33:37;94601.03;;;-0.57;100.00
30110;BME280;14965;50.660;13.226;2023-02-02T03:37:13;94605.63;;;-0.61;100.00
30110;BME280;14965;50.660;13.226;2023-02-02T03:40:46;94605.63;;;-0.61;100.00
30110;BME280;14965;50.660;13.226;2023-02-02T03:47:11;94609.13;;;-0.60;100.00
30110;BME280;14965;50.660;13.226;2023-02-02T03:50:18;94611.09;;;-0.57;100.00
30110;BME280;14965;50.660;13.226;2023-02-02T04:00:52;94609.50;;;-0.62;100.00
30110;BME280;14965;50.660;13.226;2023-02-02T04:07:13;94607.63;;;-0.58;100.00
30110;BME280;14965;50.660;13.226;2023-02-02T04:15:38;94612.25;;;-0.58;100.00
30110;BME280;14965;50.660;13.226;2023-02-02T04:21:37;94618.47;;;-0.58;100.00
30110;BME280;14965;50.660;13.226;2023-02-02T04:41:04;94609.09;;;-0.64;100.00
30110;BME280;14965;50.660;13.226;2023-02-02T04:53:08;94621.91;;;-0.61;100.00
30110;BME280;14965;50.660;13.226;2023-02-02T05:00:00;94646.31;;;-0.61;100.00
30110;BME280;14965;50.660;13.226;2023-02-02T05:03:32;94635.44;;;-0.64;100.00
30110;BME280;14965;50.660;13.226;2023-02-02T05:07:24;94639.69;;;-0.63;100.00
30110;BME280;14965;50.660;13.226;2023-02-02T05:10:23;94650.59;;;-0.60;100.00
30110;BME280;14965;50.660;13.226;2023-02-02T05:50:42;94651.69;;;-0.64;100.00
30110;BME280;14965;50.660;13.226;2023-02-02T07:59:28;94784.25;;;-0.26;98.77
30110;BME280;14965;50.660;13.226;2023-02-02T08:05:07;94774.22;;;-0.21;98.34
30110;BME280;14965;50.660;13.226;2023-02-02T08:07:33;94777.38;;;-0.19;98.65
30110;BME280;14965;50.660;13.226;2023-02-02T08:10:00;94782.03;;;-0.20;98.62
30110;BME280;14965;50.660;13.226;2023-02-02T08:12:26;94780.47;;;-0.17;98.92
30110;BME280;14965;50.660;13.226;2023-02-02T09:01:05;94840.22;;;0.20;97.39
30110;BME280;14965;50.660;13.226;2023-02-02T09:03:31;94844.91;;;0.23;97.49
30110;BME280;14965;50.660;13.226;2023-02-02T09:05:57;94849.63;;;0.30;97.80
30110;BME280;14965;50.660;13.226;2023-02-02T09:08:24;94855.09;;;0.33;96.93
30110;BME280;14965;50.660;13.226;2023-02-02T09:10:50;94855.50;;;0.35;97.25
30110;BME280;14965;50.660;13.226;2023-02-02T09:13:16;94857.41;;;0.31;96.76
30110;BME280;14965;50.660;13.226;2023-02-02T09:15:42;94860.84;;;0.28;97.20
30110;BME280;14965;50.660;13.226;2023-02-02T09:18:09;94849.59;;;0.26;97.36
30110;BME280;14965;50.660;13.226;2023-02-02T09:20:38;94849.94;;;0.24;98.09
30110;BME280;14965;50.660;13.226;2023-02-02T09:23:04;94861.25;;;0.27;97.91
30110;BME280;14965;50.660;13.226;2023-02-02T09:25:30;94864.34;;;0.29;97.95
30110;BME280;14965;50.660;13.226;2023-02-02T09:27:56;94858.19;;;0.32;98.03
30110;BME280;14965;50.660;13.226;2023-02-02T09:30:21;94857.78;;;0.33;97.81
30110;BME280;14965;50.660;13.226;2023-02-02T09:32:52;94864.03;;;0.34;97.77
30110;BME280;14965;50.660;13.226;2023-02-02T09:35:20;94853.50;;;0.29;97.96
30110;BME280;14965;50.660;13.226;2023-02-02T09:37:45;94876.00;;;0.29;97.67
30110;BME280;14965;50.660;13.226;2023-02-02T09:40:16;94878.34;;;0.31;97.74
30110;BME280;14965;50.660;13.226;2023-02-02T09:43:01;94874.47;;;0.32;97.63
30110;BME280;14965;50.660;13.226;2023-02-02T09:45:42;94874.91;;;0.34;97.95
30110;BME280;14965;50.660;13.226;2023-02-02T09:48:24;94895.56;;;0.42;97.86
30110;BME280;14965;50.660;13.226;2023-02-02T09:51:02;94875.78;;;0.45;97.47
30110;BME280;14965;50.660;13.226;2023-02-02T09:53:43;94888.19;;;0.46;97.46
30110;BME280;14965;50.660;13.226;2023-02-02T09:56:20;94894.13;;;0.55;97.04
30110;BME280;14965;50.660;13.226;2023-02-02T09:59:04;94893.03;;;0.63;96.88
30110;BME280;14965;50.660;13.226;2023-02-02T10:01:43;94898.13;;;0.68;96.58
30110;BME280;14965;50.660;13.226;2023-02-02T10:04:30;94895.84;;;0.74;95.81
30110;BME280;14965;50.660;13.226;2023-02-02T10:07:15;94900.53;;;0.77;95.88
30110;BME280;14965;50.660;13.226;2023-02-02T10:10:05;94889.28;;;0.79;95.63
30110;BME280;14965;50.660;13.226;2023-02-02T10:12:51;94882.28;;;0.78;95.10
30110;BME280;14965;50.660;13.226;2023-02-02T10:19:07;94899.81;;;0.80;94.62
30110;BME280;14965;50.660;13.226;2023-02-02T10:21:47;94884.63;;;0.76;94.41
30110;BME280;14965;50.660;13.226;2023-02-02T10:24:21;94891.25;;;0.82;94.63
30110;BME280;14965;50.660;13.226;2023-02-02T10:26:56;94887.38;;;0.83;94.23
30110;BME280;14965;50.660;13.226;2023-02-02T10:29:54;94904.50;;;0.87;94.02
30110;BME280;14965;50.660;13.226;2023-02-02T10:32:37;94899.84;;;0.87;94.46
30110;BME280;14965;50.660;13.226;2023-02-02T10:35:43;94909.13;;;0.83;94.48
30110;BME280;14965;50.660;13.226;2023-02-02T10:38:33;94904.84;;;0.82;95.00
30110;BME280;14965;50.660;13.226;2023-02-02T10:41:18;94905.28;;;0.84;95.16
30110;BME280;14965;50.660;13.226;2023-02-02T10:44:15;94911.41;;;0.77;95.17
30110;BME280;14965;50.660;13.226;2023-02-02T10:46:50;94916.03;;;0.73;95.12
30110;BME280;14965;50.660;13.226;2023-02-02T10:49:38;94917.56;;;0.70;95.71
30110;BME280;14965;50.660;13.226;2023-02-02T10:52:15;94907.44;;;0.67;96.72
30110;BME280;14965;50.660;13.226;2023-02-02T10:54:55;94913.31;;;0.73;96.47
30110;BME280;14965;50.660;13.226;2023-02-02T10:58:05;94913.72;;;0.71;96.38
30110;BME280;14965;50.660;13.226;2023-02-02T11:04:28;94919.50;;;0.70;96.08
30110;BME280;14965;50.660;13.226;2023-02-02T11:11:37;94906.84;;;0.85;95.25
30110;BME280;14965;50.660;13.226;2023-02-02T11:15:04;94899.38;;;0.78;94.11
30110;BME280;14965;50.660;13.226;2023-02-02T11:18:37;94902.94;;;0.86;94.11
30110;BME280;14965;50.660;13.226;2023-02-02T11:21:32;94914.22;;;0.88;93.83
30110;BME280;14965;50.660;13.226;2023-02-02T11:31:43;94912.66;;;0.87;93.08
30110;BME280;14965;50.660;13.226;2023-02-02T11:34:21;94918.53;;;0.89;92.60
30110;BME280;14965;50.660;13.226;2023-02-02T11:37:11;94923.91;;;0.85;92.36
30110;BME280;14965;50.660;13.226;2023-02-02T11:39:42;94926.22;;;0.80;93.54
30110;BME280;14965;50.660;13.226;2023-02-02T11:42:15;94932.75;;;0.75;94.27
30110;BME280;14965;50.660;13.226;2023-02-02T11:44:46;94938.16;;;0.71;94.59
30110;BME280;14965;50.660;13.226;2023-02-02T11:47:24;94935.06;;;0.73;94.32
30110;BME280;14965;50.660;13.226;2023-02-02T11:49:54;94943.59;;;0.71;95.01
30110;BME280;14965;50.660;13.226;2023-02-02T11:52:24;94946.34;;;0.75;94.28
30110;BME280;14965;50.660;13.226;2023-02-02T11:54:55;94949.56;;;0.84;93.79
30110;BME280;14965;50.660;13.226;2023-02-02T11:57:24;94938.38;;;0.93;93.74
30110;BME280;14965;50.660;13.226;2023-02-02T12:00:18;94954.34;;;0.98;93.20
30110;BME280;14965;50.660;13.226;2023-02-02T12:02:48;94951.19;;;0.96;92.64
30110;BME280;14965;50.660;13.226;2023-02-02T12:05:34;94952.78;;;0.97;92.29
30110;BME280;14965;50.660;13.226;2023-02-02T12:08:01;94941.50;;;0.98;92.53
30110;BME280;14965;50.660;13.226;2023-02-02T12:10:36;94945.75;;;0.96;91.29
30110;BME280;14965;50.660;13.226;2023-02-02T12:13:09;94950.81;;;0.94;92.02
30110;BME280;14965;50.660;13.226;2023-02-02T12:15:50;94955.13;;;0.98;92.36
30110;BME280;14965;50.660;13.226;2023-02-02T12:18:38;94949.34;;;1.07;91.48
30110;BME280;14965;50.660;13.226;2023-02-02T12:21:08;94938.94;;;1.16;91.39
30110;BME280;14965;50.660;13.226;2023-02-02T12:24:11;94945.16;;;1.17;90.96
30110;BME280;14965;50.660;13.226;2023-02-02T12:26:47;94942.44;;;1.13;91.54
30110;BME280;14965;50.660;13.226;2023-02-02T12:29:33;94939.72;;;1.13;92.52
30110;BME280;14965;50.660;13.226;2023-02-02T12:32:27;94932.03;;;1.26;92.23
30110;BME280;14965;50.660;13.226;2023-02-02T12:35:29;94928.16;;;1.27;91.25
30110;BME280;14965;50.660;13.226;2023-02-02T12:38:11;94942.25;;;1.40;91.44
30110;BME280;14965;50.660;13.226;2023-02-02T12:41:03;94941.13;;;1.48;90.56
30110;BME280;14965;50.660;13.226;2023-02-02T12:43:38;94952.34;;;1.39;90.65
30110;BME280;14965;50.660;13.226;2023-02-02T12:46:46;94946.53;;;1.41;90.47
30110;BME280;14965;50.660;13.226;2023-02-02T12:50:06;94952.47;;;1.57;90.20
30110;BME280;14965;50.660;13.226;2023-02-02T12:57:15;94954.56;;;1.78;89.44
30110;BME280;14965;50.660;13.226;2023-02-02T13:03:58;94983.28;;;1.68;89.58
30110;BME280;14965;50.660;13.226;2023-02-02T13:07:15;94973.31;;;1.35;89.70
30110;BME280;14965;50.660;13.226;2023-02-02T13:10:05;94975.16;;;1.24;90.83
30110;BME280;14965;50.660;13.226;2023-02-02T13:12:40;94985.19;;;1.16;91.64
30110;BME280;14965;50.660;13.226;2023-02-02T13:15:17;94980.91;;;1.15;92.16
30110;BME280;14965;50.660;13.226;2023-02-02T13:17:53;94985.56;;;1.15;92.76
30110;BME280;14965;50.660;13.226;2023-02-02T13:20:30;94984.78;;;1.14;92.39
30110;BME280;14965;50.660;13.226;2023-02-02T13:23:09;94989.03;;;1.12;92.73
30110;BME280;14965;50.660;13.226;2023-02-02T13:25:44;94996.84;;;1.13;93.00
30110;BME280;14965;50.660;13.226;2023-02-02T13:28:27;94993.31;;;1.13;93.36
30110;BME280;14965;50.660;13.226;2023-02-02T13:31:11;95003.84;;;1.14;94.01
30110;BME280;14965;50.660;13.226;2023-02-02T13:33:48;95010.81;;;1.15;93.80
30110;BME280;14965;50.660;13.226;2023-02-02T13:36:22;95007.28;;;1.11;94.03
30110;BME280;14965;50.660;13.226;2023-02-02T13:38:54;95023.53;;;1.04;94.37
30110;BME280;14965;50.660;13.226;2023-02-02T13:41:21;95016.13;;;1.01;93.85
30110;BME280;14965;50.660;13.226;2023-02-02T13:43:54;95013.03;;;1.03;94.65
30110;BME280;14965;50.660;13.226;2023-02-02T13:46:34;95019.63;;;1.02;94.79
30110;BME280;14965;50.660;13.226;2023-02-02T13:49:06;95024.25;;;0.97;94.27
30110;BME280;14965;50.660;13.226;2023-02-02T13:51:44;95040.16;;;0.95;94.44
30110;BME280;14965;50.660;13.226;2023-02-02T13:54:46;95037.06;;;0.97;95.04
30110;BME280;14965;50.660;13.226;2023-02-02T13:57:42;95046.34;;;0.92;94.99
30110;BME280;14965;50.660;13.226;2023-02-02T14:00:16;95041.66;;;0.89;95.47
30110;BME280;14965;50.660;13.226;2023-02-02T14:02:47;95062.13;;;0.80;95.79
30110;BME280;14965;50.660;13.226;2023-02-02T14:05:24;95064.03;;;0.79;96.16
30110;BME280;14965;50.660;13.226;2023-02-02T14:07:58;95069.88;;;0.78;96.70
30110;BME280;14965;50.660;13.226;2023-02-02T14:10:31;95062.41;;;0.71;97.17
30110;BME280;14965;50.660;13.226;2023-02-02T14:13:14;95073.69;;;0.73;96.80
30110;BME280;14965;50.660;13.226;2023-02-02T14:15:43;95071.75;;;0.73;96.85
30110;BME280;14965;50.660;13.226;2023-02-02T14:18:10;95076.47;;;0.77;97.18
30110;BME280;14965;50.660;13.226;2023-02-02T14:20:46;95091.22;;;0.76;97.36
30110;BME280;14965;50.660;13.226;2023-02-02T14:23:51;95079.53;;;0.75;97.30
30110;BME280;14965;50.660;13.226;2023-02-02T14:27:02;95084.97;;;0.75;97.53
30110;BME280;14965;50.660;13.226;2023-02-02T14:30:13;95089.63;;;0.74;98.39
30110;BME280;14965;50.660;13.226;2023-02-02T15:12:30;95171.59;;;0.50;100.00
30110;BME280;14965;50.660;13.226;2023-02-02T15:15:11;95179.34;;;0.48;100.00
30110;BME280;14965;50.660;13.226;2023-02-02T15:17:57;95174.69;;;0.48;100.00
30110;BME280;14965;50.660;13.226;2023-02-02T15:20:32;95179.34;;;0.48;100.00
30110;BME280;14965;50.660;13.226;2023-02-02T15:23:06;95188.66;;;0.47;100.00
30110;BME280;14965;50.660;13.226;2023-02-02T15:25:44;95184.72;;;0.44;100.00
30110;BME280;14965;50.660;13.226;2023-02-02T15:28:23;95196.69;;;0.40;100.00
30110;BME280;14965;50.660;13.226;2023-02-02T15:30:58;95192.75;;;0.37;100.00
30110;BME280;14965;50.660;13.226;2023-02-02T15:33:29;95199.78;;;0.38;100.00
30110;BME280;14965;50.660;13.226;2023-02-02T15:35:58;95190.81;;;0.34;100.00
30110;BME280;14965;50.660;13.226;2023-02-02T15:38:33;95201.59;;;0.31;100.00
30110;BME280;14965;50.660;13.226;2023-02-02T15:41:12;95209.75;;;0.31;100.00
30110;BME280;14965;50.660;13.226;2023-02-02T15:43:44;95208.19;;;0.30;100.00
30110;BME280;14965;50.660;13.226;2023-02-02T15:46:15;95227.94;;;0.27;100.00
30110;BME280;14965;50.660;13.226;2023-02-02T15:48:42;95218.94;;;0.22;100.00
30110;BME280;14965;50.660;13.226;2023-02-02T15:51:15;95227.88;;;0.23;100.00
30110;BME280;14965;50.660;13.226;2023-02-02T15:53:48;95230.94;;;0.21;100.00
30110;BME280;14965;50.660;13.226;2023-02-02T15:56:27;95233.94;;;0.16;100.00
30110;BME280;14965;50.660;13.226;2023-02-02T15:58:58;95241.31;;;0.16;100.00
30110;BME280;14965;50.660;13.226;2023-02-02T16:01:28;95252.94;;;0.13;100.00
30110;BME280;14965;50.660;13.226;2023-02-02T16:04:09;95259.53;;;0.15;100.00
30110;BME280;14965;50.660;13.226;2023-02-02T16:06:39;95263.81;;;0.16;100.00
30110;BME280;14965;50.660;13.226;2023-02-02T16:09:06;95262.25;;;0.15;100.00
30110;BME280;14965;50.660;13.226;2023-02-02T16:11:32;95274.22;;;0.11;100.00
30110;BME280;14965;50.660;13.226;2023-02-02T16:14:04;95281.56;;;0.10;100.00
30110;BME280;14965;50.660;13.226;2023-02-02T16:16:33;95276.06;;;0.07;100.00
30110;BME280;14965;50.660;13.226;2023-02-02T16:19:03;95291.59;;;0.06;100.00
30110;BME280;14965;50.660;13.226;2023-02-02T16:21:30;95288.09;;;0.06;100.00
30110;BME280;14965;50.660;13.226;2023-02-02T16:23:58;95309.38;;;0.04;100.00
30110;BME280;14965;50.660;13.226;2023-02-02T16:26:29;95312.47;;;0.02;100.00
30110;BME280;14965;50.660;13.226;2023-02-02T16:28:56;95314.78;;;0.00;100.00
30110;BME280;14965;50.660;13.226;2023-02-02T16:31:24;95314.41;;;0.02;100.00
30110;BME280;14965;50.660;13.226;2023-02-02T16:33:50;95310.91;;;0.01;100.00
30110;BME280;14965;50.660;13.226;2023-02-02T16:36:20;95325.25;;;0.02;100.00
30110;BME280;14965;50.660;13.226;2023-02-02T16:38:48;95329.91;;;0.01;100.00
30110;BME280;14965;50.660;13.226;2023-02-02T16:41:26;95327.97;;;0.02;100.00
30110;BME280;14965;50.660;13.226;2023-02-02T16:43:53;95340.84;;;0.05;100.00
30110;BME280;14965;50.660;13.226;2023-02-02T16:46:43;95343.19;;;0.06;100.00
30110;BME280;14965;50.660;13.226;2023-02-02T16:49:16;95348.63;;;0.06;100.00
30110;BME280;14965;50.660;13.226;2023-02-02T16:51:44;95353.25;;;0.06;100.00
30110;BME280;14965;50.660;13.226;2023-02-02T16:54:17;95345.81;;;0.03;100.00
30110;BME280;14965;50.660;13.226;2023-02-02T16:56:47;95359.47;;;0.06;100.00
30110;BME280;14965;50.660;13.226;2023-02-02T16:59:21;95362.19;;;0.06;100.00
30110;BME280;14965;50.660;13.226;2023-02-02T17:01:54;95361.03;;;0.07;100.00
30110;BME280;14965;50.660;13.226;2023-02-02T17:04:26;95366.53;;;0.11;100.00
30110;BME280;14965;50.660;13.226;2023-02-02T17:06:56;95383.28;;;0.13;100.00
30110;BME280;14965;50.660;13.226;2023-02-02T17:09:34;95370.47;;;0.13;100.00
30110;BME280;14965;50.660;13.226;2023-02-02T17:12:04;95368.19;;;0.15;100.00
30110;BME280;14965;50.660;13.226;2023-02-02T17:14:34;95374.06;;;0.17;100.00
30110;BME280;14965;50.660;13.226;2023-02-02T17:17:05;95377.56;;;0.18;100.00
30110;BME280;14965;50.660;13.226;2023-02-02T17:19:48;95390.34;;;0.17;100.00
30110;BME280;14965;50.660;13.226;2023-02-02T17:22:24;95391.47;;;0.16;100.00
30110;BME280;14965;50.660;13.226;2023-02-02T17:25:17;95394.19;;;0.16;100.00
30110;BME280;14965;50.660;13.226;2023-02-02T17:28:46;95393.47;;;0.19;100.00
30110;BME280;14965;50.660;13.226;2023-02-02T17:31:25;95411.00;;;0.22;100.00
30110;BME280;14965;50.660;13.226;2023-02-02T18:08:31;95471.38;;;0.15;100.00
30110;BME280;14965;50.660;13.226;2023-02-02T18:10:59;95458.97;;;0.14;100.00
30110;BME280;14965;50.660;13.226;2023-02-02T18:13:26;95465.97;;;0.15;100.00
30110;BME280;14965;50.660;13.226;2023-02-02T18:15:53;95462.47;;;0.15;100.00
30110;BME280;14965;50.660;13.226;2023-02-02T18:18:19;95463.69;;;0.17;100.00
30110;BME280;14965;50.660;13.226;2023-02-02T18:20:48;95464.47;;;0.18;100.00
30110;BME280;14965;50.660;13.226;2023-02-02T18:23:16;95460.22;;;0.20;100.00
30110;BME280;14965;50.660;13.226;2023-02-02T18:25:43;95466.91;;;0.23;100.00
30110;BME280;14965;50.660;13.226;2023-02-02T18:28:10;95456.41;;;0.21;100.00
30110;BME280;14965;50.660;13.226;2023-02-02T18:30:37;95461.88;;;0.25;100.00
30110;BME280;14965;50.660;13.226;2023-02-02T18:33:06;95464.25;;;0.27;100.00
30110;BME280;14965;50.660;13.226;2023-02-02T18:35:32;95461.16;;;0.28;100.00
30110;BME280;14965;50.660;13.226;2023-02-02T18:38:01;95457.31;;;0.29;100.00
30110;BME280;14965;50.660;13.226;2023-02-02T18:40:27;95455.31;;;0.26;100.00
30110;BME280;14965;50.660;13.226;2023-02-02T18:42:59;95456.03;;;0.23;100.00
30110;BME280;14965;50.660;13.226;2023-02-02T18:45:31;95464.53;;;0.21;100.00
30110;BME280;14965;50.660;13.226;2023-02-02T18:47:57;95460.69;;;0.22;100.00
30110;BME280;14965;50.660;13.226;2023-02-02T18:50:26;95468.75;;;0.19;100.00
30110;BME280;14965;50.660;13.226;2023-02-02T18:52:55;95465.66;;;0.20;100.00
30110;BME280;14965;50.660;13.226;2023-02-02T18:55:26;95463.31;;;0.19;100.00
30110;BME280;14965;50.660;13.226;2023-02-02T18:57:57;95462.16;;;0.20;100.00
30110;BME280;14965;50.660;13.226;2023-02-02T19:00:23;95466.91;;;0.23;100.00
30110;BME280;14965;50.660;13.226;2023-02-02T19:02:49;95466.97;;;0.27;100.00
30110;BME280;14965;50.660;13.226;2023-02-02T19:05:19;95471.34;;;0.31;100.00
30110;BME280;14965;50.660;13.226;2023-02-02T19:07:49;95474.47;;;0.33;100.00
30110;BME280;14965;50.660;13.226;2023-02-02T19:10:19;95476.47;;;0.36;100.00
30110;BME280;14965;50.660;13.226;2023-02-02T19:12:54;95474.91;;;0.35;100.00
30110;BME280;14965;50.660;13.226;2023-02-02T19:15:24;95471.41;;;0.35;100.00
30110;BME280;14965;50.660;13.226;2023-02-02T19:17:54;95478.00;;;0.34;100.00
30110;BME280;14965;50.660;13.226;2023-02-02T19:20:29;95471.41;;;0.35;100.00
30110;BME280;14965;50.660;13.226;2023-02-02T19:23:05;95474.13;;;0.35;100.00
30110;BME280;14965;50.660;13.226;2023-02-02T19:25:34;95474.91;;;0.35;100.00
30110;BME280;14965;50.660;13.226;2023-02-02T19:28:01;95469.84;;;0.34;100.00
30110;BME280;14965;50.660;13.226;2023-02-02T19:30:36;95474.41;;;0.30;100.00
30110;BME280;14965;50.660;13.226;2023-02-02T19:33:08;95476.59;;;0.24;100.00
30110;BME280;14965;50.660;13.226;2023-02-02T19:35:37;95473.91;;;0.24;100.00
30110;BME280;14965;50.660;13.226;2023-02-02T19:38:11;95468.47;;;0.24;100.00
30110;BME280;14965;50.660;13.226;2023-02-02T19:40:40;95468.47;;;0.24;100.00
30110;BME280;14965;50.660;13.226;2023-02-02T19:43:23;95469.97;;;0.21;100.00
30110;BME280;14965;50.660;13.226;2023-02-02T19:45:54;95469.97;;;0.21;100.00
30110;BME280;14965;50.660;13.226;2023-02-02T19:48:25;95482.41;;;0.22;100.00
30110;BME280;14965;50.660;13.226;2023-02-02T19:50:53;95476.97;;;0.22;100.00
30110;BME280;14965;50.660;13.226;2023-02-02T19:53:22;95473.91;;;0.24;100.00
30110;BME280;14965;50.660;13.226;2023-02-02T19:55:52;95480.88;;;0.25;100.00
30110;BME280;14965;50.660;13.226;2023-02-02T19:58:21;95470.84;;;0.26;100.00
30110;BME280;14965;50.660;13.226;2023-02-02T20:00:54;95480.09;;;0.24;100.00
30110;BME280;14965;50.660;13.226;2023-02-02T20:03:26;95475.41;;;0.21;100.00